Historyczne dane pomiarowe

Dodano dane terminowe – wersja testowa.

Dane z okresu 1951-2019

Wersja bazy: 1.34 [2019-03-16, lista zmian], aktualizacja planowana na 2019-04-15

Dane meteo z obszaru Polski uzyskane na podstawie danych udostępnionych przez Instytut Meteorologii i Gospodarki Wodnej – Państwowy Instytut Badawczy.

 

Wybierz Datę:    

       

TemperaturaWilgotnośćZachmurzenieWiatrCiśnienieWidzialnośćZjawiska
 Data    tng td wb rh cc ccl cl cm ch dir g1 g2 mslp ppp      
1999-07-12 00:00:00 15.1--- 14.4 14.796wxwxwxwx2wx--1018.2 993.7 0.0---wx
1999-07-12 01:00:00 14.7--- 14.0 14.396wxwxwx1wx--1018.0 993.5----wx
1999-07-12 02:00:00 13.7--- 13.5 13.699wxwxwx1wx--1017.6 993.0----wx
1999-07-12 03:00:00 14.1--- 13.9 14.099wxwxwx0wx--1017.7 993.1----wx
1999-07-12 04:00:00 15.1--- 14.9 15.099wxwxwx0wx--1017.6 993.1----wxw1
1999-07-12 05:00:00 16.8--- 16.8 16.8100wxwxwx0wx--1017.3 992.9----wxw1
1999-07-12 06:00:00 17.7--- 17.4 17.598wxwxwx1wx--1017.1 992.8 0.0---wx
1999-07-12 07:00:00 20.1--- 16.7 17.981wxwxwxwx1wx--1016.9 992.8----wx
1999-07-12 08:00:00 21.4--- 19.3 20.088wxwxwx3wx--1016.4 992.4----wx
1999-07-12 09:00:00 23.2--- 20.0 21.082wxwxwx2wx--1015.9 992.1----wx
1999-07-12 10:00:00 25.2--- 18.8 20.968wxwxwxwx2wx--1015.4 991.8----wx
1999-07-12 11:00:00 26.5--- 18.3 21.061wxwxwx2wx--1014.8 991.3----wx
1999-07-12 12:00:00 25.6--- 18.4 20.865wxwxwxwx1wx--1014.5 990.9 0.0---wx
1999-07-12 13:00:00 22.6--- 15.2 17.963wxwxwxwx6wx--1014.7 990.9----wxw1
1999-07-12 14:00:00 22.2--- 20.1 20.888wxwxwxwxwx2wx--1014.0 990.2----wxw1
1999-07-12 15:00:00 25.2--- 19.0 21.068wxwxwxwx1wx--1013.3 989.7----wxw1
1999-07-12 16:00:00 24.0--- 19.3 20.875wxwxwxwx4wx--1013.4 989.7----wx
1999-07-12 17:00:00 22.0--- 19.6 20.486wxwxwxwx2wx--1013.0 989.2----wxw1
1999-07-12 18:00:00 20.8--- 18.5 19.387wxwxwxwx3wx--1013.2 989.3 0.4---wxw1
1999-07-12 19:00:00 20.3--- 17.9 18.786wxwxwxwx2wx--1013.4 989.4----wx
1999-07-12 20:00:00 19.2--- 17.5 18.190wxwxwxwx2wx--1013.1 989.0----wx
1999-07-12 21:00:00 18.8--- 17.4 17.992wxwxwx2wx--1013.0 988.9----wx
1999-07-12 22:00:00 18.0--- 16.9 17.393wxwx1wx--1013.1 988.9----wx
1999-07-12 23:00:00 18.0--- 17.1 17.494wxwx0wx--1012.7 988.6----wx

 

Źródłem pochodzenia danych jest Instytut Meteorologii i Gospodarki Wodnej – Państwowy Instytut Badawczy. Dane Instytutu Meteorologii i Gospodarki Wodnej – Państwowego Instytutu Badawczego zostały przetworzone.

Dane źródłowe można odnaleźć na stronie https://dane.imgw.pl